Aviation Digital Data Service (ADDS)

Output produced by METARs form (2340 UTC 13 February 2016)
found at http://aviationweather.gov/adds/metars/
 
KFNT 132336Z 1400/1424 32009KT P6SM SCT050 
     FM140100 VRB03KT P6SM SKC 
     FM141600 14007KT P6SM BKN200